createdAt,value
2024-04-30T00:00:21.086Z,1.30
2024-04-30T00:02:47.635Z,1.10
2024-04-30T00:05:14.315Z,1.58
2024-04-30T00:07:42.011Z,1.10
2024-04-30T00:10:08.608Z,1.13
2024-04-30T00:12:35.190Z,1.30
2024-04-30T00:15:02.923Z,1.20
2024-04-30T00:17:29.679Z,1.25
2024-04-30T00:19:56.524Z,1.52
2024-04-30T00:22:23.302Z,1.45
2024-04-30T00:24:49.891Z,1.10
2024-04-30T00:27:16.512Z,1.30
2024-04-30T00:29:43.165Z,1.20
2024-04-30T00:32:09.756Z,1.25
2024-04-30T00:34:38.185Z,1.15
2024-04-30T00:37:04.810Z,1.50
2024-04-30T00:39:31.457Z,1.30
2024-04-30T00:41:58.171Z,1.25
2024-04-30T00:44:24.787Z,1.50
2024-04-30T00:46:51.460Z,1.40
2024-04-30T00:49:18.979Z,1.40
2024-04-30T00:51:45.685Z,1.40
2024-04-30T00:54:12.879Z,1.40
2024-04-30T00:56:39.516Z,1.30
2024-04-30T00:59:06.087Z,1.52
2024-04-30T01:01:33.336Z,1.58
2024-04-30T01:03:59.962Z,1.50
2024-04-30T01:06:26.562Z,1.48
2024-04-30T01:08:53.293Z,1.50
2024-04-30T01:11:20.384Z,1.25
2024-04-30T01:13:47.029Z,1.30
2024-04-30T01:16:13.649Z,1.27
2024-04-30T01:18:40.242Z,1.52
2024-04-30T01:21:06.823Z,1.20
2024-04-30T01:23:33.412Z,1.20
2024-04-30T01:26:00.510Z,1.17
2024-04-30T01:28:27.133Z,1.30
2024-04-30T01:30:54.468Z,1.15
2024-04-30T01:33:21.053Z,1.23
2024-04-30T01:35:47.861Z,1.30
2024-04-30T01:38:14.564Z,1.20
2024-04-30T01:40:41.246Z,1.48
2024-04-30T01:43:08.058Z,1.17
2024-04-30T01:45:34.777Z,1.10
2024-04-30T01:48:01.488Z,1.30
2024-04-30T01:50:28.095Z,1.58
2024-04-30T01:52:54.661Z,1.50
2024-04-30T01:55:21.278Z,1.27
2024-04-30T01:57:48.127Z,1.40
2024-04-30T02:00:14.920Z,1.45
2024-04-30T02:02:41.505Z,1.35
2024-04-30T02:05:13.755Z,1.45
2024-04-30T02:07:48.017Z,1.45
2024-04-30T02:10:15.010Z,1.38
2024-04-30T02:12:41.623Z,1.27
2024-04-30T02:15:08.368Z,1.50
2024-04-30T02:17:35.314Z,1.40
2024-04-30T02:20:02.974Z,1.17
2024-04-30T02:22:29.662Z,1.17
2024-04-30T02:24:56.839Z,1.25
2024-04-30T02:27:23.438Z,1.17
2024-04-30T02:29:50.081Z,1.40
2024-04-30T02:32:35.250Z,1.00
2024-04-30T02:35:01.880Z,1.23
2024-04-30T02:37:28.570Z,1.40
2024-04-30T02:39:55.180Z,1.15
2024-04-30T02:42:21.760Z,1.23
2024-04-30T02:44:48.354Z,1.50
2024-04-30T02:47:14.949Z,1.40
2024-04-30T02:49:41.561Z,1.52
2024-04-30T02:52:08.215Z,1.88
2024-04-30T02:54:34.839Z,1.58
2024-04-30T02:57:01.459Z,1.40
2024-04-30T02:59:28.222Z,1.45
2024-04-30T03:01:55.815Z,1.15
2024-04-30T03:04:22.577Z,1.77
2024-04-30T03:06:49.423Z,1.60
2024-04-30T03:09:16.075Z,1.67
2024-04-30T03:11:45.960Z,1.70
2024-04-30T03:14:13.547Z,1.35
2024-04-30T03:16:43.582Z,1.33
2024-04-30T03:19:10.230Z,1.30
2024-04-30T03:21:36.877Z,1.15
2024-04-30T03:24:03.478Z,1.42
2024-04-30T03:26:30.135Z,1.40
2024-04-30T03:28:56.726Z,1.30
2024-04-30T03:31:23.318Z,1.33
2024-04-30T03:33:50.493Z,1.13
2024-04-30T03:36:19.282Z,1.10
2024-04-30T03:38:45.936Z,1.50
2024-04-30T03:41:14.130Z,1.20
2024-04-30T03:43:40.776Z,1.50
2024-04-30T03:46:13.170Z,1.30
2024-04-30T03:48:40.068Z,1.40
2024-04-30T03:51:06.673Z,1.58
2024-04-30T03:53:33.213Z,1.48
2024-04-30T03:55:59.803Z,1.38
2024-04-30T03:58:26.463Z,1.50
2024-04-30T04:00:53.138Z,1.73
2024-04-30T04:03:19.904Z,1.55
2024-04-30T04:05:46.625Z,1.80
2024-04-30T04:08:13.214Z,1.80
2024-04-30T04:10:42.542Z,1.50
2024-04-30T04:13:27.967Z,1.90
2024-04-30T04:15:54.673Z,1.65
2024-04-30T04:18:21.315Z,1.60
2024-04-30T04:20:47.949Z,1.60
2024-04-30T04:23:14.489Z,2.20
2024-04-30T04:25:41.189Z,1.80
2024-04-30T04:28:07.805Z,2.00
2024-04-30T04:30:34.399Z,1.92
2024-04-30T04:33:01.634Z,1.73
2024-04-30T04:35:28.344Z,2.15
2024-04-30T04:37:54.955Z,1.77
2024-04-30T04:40:21.578Z,2.17
2024-04-30T04:42:48.161Z,2.08
2024-04-30T04:45:14.761Z,2.28
2024-04-30T04:47:41.383Z,2.65
2024-04-30T04:50:08.247Z,2.50
2024-04-30T04:52:34.968Z,2.03
2024-04-30T04:55:04.099Z,1.90
2024-04-30T04:57:31.396Z,2.15
2024-04-30T04:59:58.245Z,1.80
2024-04-30T05:02:24.860Z,2.00
2024-04-30T05:04:51.598Z,2.10
2024-04-30T05:07:18.607Z,1.90
2024-04-30T05:09:45.818Z,2.35
2024-04-30T05:12:12.471Z,2.28
2024-04-30T05:14:39.034Z,1.77
2024-04-30T05:17:06.719Z,2.22
2024-04-30T05:19:33.414Z,2.85
2024-04-30T05:22:00.088Z,1.77
2024-04-30T05:24:27.056Z,1.88
2024-04-30T05:26:53.608Z,1.67
2024-04-30T05:29:20.157Z,1.80
2024-04-30T05:31:46.764Z,1.70
2024-04-30T05:34:13.400Z,1.50
2024-04-30T05:36:40.102Z,1.60
2024-04-30T05:39:06.723Z,1.60
2024-04-30T05:41:33.295Z,1.50
2024-04-30T05:44:00.850Z,1.55
2024-04-30T05:46:27.687Z,1.40
2024-04-30T05:48:54.572Z,1.50
2024-04-30T05:51:21.145Z,1.52
2024-04-30T05:53:47.698Z,1.80
2024-04-30T05:56:14.311Z,1.60
2024-04-30T05:58:40.936Z,1.75
2024-04-30T06:01:07.720Z,1.60
2024-04-30T06:03:34.398Z,2.17
2024-04-30T06:06:00.978Z,1.60
2024-04-30T06:08:27.557Z,1.60
2024-04-30T06:10:54.236Z,1.73
2024-04-30T06:13:20.985Z,2.10
2024-04-30T06:15:47.559Z,1.50
2024-04-30T06:18:14.192Z,1.50
2024-04-30T06:20:40.878Z,1.80
2024-04-30T06:23:07.424Z,1.48
2024-04-30T06:25:34.044Z,1.65
2024-04-30T06:28:00.624Z,1.70
2024-04-30T06:30:27.162Z,1.80
2024-04-30T06:32:53.811Z,1.80
2024-04-30T06:35:20.444Z,1.58
2024-04-30T06:37:47.020Z,1.60
2024-04-30T06:40:13.667Z,1.52
2024-04-30T06:42:40.235Z,1.40
2024-04-30T06:45:07.060Z,1.50
2024-04-30T06:47:34.104Z,1.63
2024-04-30T06:50:00.819Z,2.15
2024-04-30T06:52:27.419Z,1.48
2024-04-30T06:54:54.019Z,1.50
2024-04-30T06:57:20.602Z,1.45
2024-04-30T06:59:47.143Z,1.42
2024-04-30T07:02:13.726Z,1.63
2024-04-30T07:04:40.323Z,1.33
2024-04-30T07:07:06.974Z,1.50
2024-04-30T07:09:33.561Z,1.23
2024-04-30T07:12:02.879Z,1.45
2024-04-30T07:14:29.717Z,1.55
2024-04-30T07:17:00.159Z,1.30
2024-04-30T07:19:33.460Z,1.30
2024-04-30T07:22:00.195Z,1.50
2024-04-30T07:24:26.842Z,1.60
2024-04-30T07:26:54.953Z,1.40
2024-04-30T07:29:21.576Z,1.27
2024-04-30T07:31:48.299Z,1.38
2024-04-30T07:34:14.921Z,1.60
2024-04-30T07:36:41.519Z,1.40
2024-04-30T07:39:08.065Z,1.55
2024-04-30T07:41:34.604Z,1.35
2024-04-30T07:44:01.157Z,1.20
2024-04-30T07:46:27.746Z,1.60
2024-04-30T07:48:55.264Z,1.50
2024-04-30T07:51:21.939Z,1.20
2024-04-30T07:53:48.677Z,1.50
2024-04-30T07:56:15.212Z,1.40
2024-04-30T07:58:41.906Z,1.55
2024-04-30T08:01:08.672Z,1.50
2024-04-30T08:03:35.301Z,1.50
2024-04-30T08:06:10.524Z,1.40
2024-04-30T08:08:41.516Z,1.50
2024-04-30T08:11:08.080Z,1.33
2024-04-30T08:13:34.785Z,1.67
2024-04-30T08:16:01.423Z,1.92
2024-04-30T08:18:28.400Z,1.40
2024-04-30T08:20:54.940Z,1.50
2024-04-30T08:23:21.565Z,1.00
2024-04-30T08:25:48.154Z,1.25
2024-04-30T08:28:14.774Z,1.48
2024-04-30T08:30:41.694Z,1.40
2024-04-30T08:33:08.751Z,1.40
2024-04-30T08:35:35.348Z,1.30
2024-04-30T08:38:03.188Z,1.70
2024-04-30T08:40:29.970Z,1.55
2024-04-30T08:42:56.917Z,1.30
2024-04-30T08:45:27.014Z,2.03
2024-04-30T08:47:55.255Z,1.38
2024-04-30T08:50:26.476Z,1.77
2024-04-30T08:52:54.879Z,1.65
2024-04-30T08:55:22.269Z,1.70
2024-04-30T08:57:48.875Z,1.67
2024-04-30T09:00:15.532Z,1.42
2024-04-30T09:02:42.147Z,1.70
2024-04-30T09:05:09.575Z,1.73
2024-04-30T09:07:38.057Z,1.50
2024-04-30T09:10:05.018Z,2.47
2024-04-30T09:12:31.755Z,1.80
2024-04-30T09:14:58.366Z,1.52
2024-04-30T09:17:25.987Z,1.48
2024-04-30T09:20:09.391Z,1.42
2024-04-30T09:22:46.982Z,1.40
2024-04-30T09:25:13.828Z,1.27
2024-04-30T09:27:40.401Z,1.30
2024-04-30T09:30:20.986Z,1.35
2024-04-30T09:32:47.687Z,1.77
2024-04-30T09:35:27.650Z,1.30
2024-04-30T09:38:01.265Z,1.60
2024-04-30T09:40:30.460Z,1.48
2024-04-30T09:42:57.201Z,1.58
2024-04-30T09:45:24.644Z,1.60
2024-04-30T09:47:51.821Z,1.50
2024-04-30T09:50:19.124Z,1.33
2024-04-30T09:52:46.706Z,1.52
2024-04-30T09:55:14.618Z,1.80
2024-04-30T09:57:43.819Z,1.70
2024-04-30T10:00:12.354Z,1.75
2024-04-30T10:02:48.413Z,1.70
2024-04-30T10:05:18.986Z,1.58
2024-04-30T10:07:47.744Z,1.70
2024-04-30T10:10:31.397Z,1.50
2024-04-30T10:13:11.973Z,1.60
2024-04-30T10:15:39.313Z,1.67
2024-04-30T10:18:07.369Z,1.52
2024-04-30T10:20:34.076Z,1.40
2024-04-30T10:23:06.122Z,1.80
2024-04-30T10:25:32.859Z,1.50
2024-04-30T10:28:07.651Z,1.70
2024-04-30T10:30:34.530Z,1.70
2024-04-30T10:33:01.346Z,1.60
2024-04-30T10:35:38.627Z,1.50
2024-04-30T10:38:05.258Z,1.38
2024-04-30T10:40:34.199Z,1.75
2024-04-30T10:43:00.852Z,1.40
2024-04-30T10:45:27.692Z,1.60
2024-04-30T10:47:54.400Z,1.60
2024-04-30T10:50:21.265Z,1.50
2024-04-30T10:52:48.084Z,1.50
2024-04-30T10:55:15.478Z,1.80
2024-04-30T10:57:43.869Z,1.40
2024-04-30T11:00:11.606Z,1.63
2024-04-30T11:02:47.256Z,1.75
2024-04-30T11:05:16.643Z,1.48
2024-04-30T11:08:03.649Z,1.60
2024-04-30T11:10:33.895Z,1.70
2024-04-30T11:13:04.053Z,1.77
2024-04-30T11:15:30.867Z,1.33
2024-04-30T11:17:57.540Z,1.80
2024-04-30T11:20:24.187Z,1.67
2024-04-30T11:22:50.724Z,2.15
2024-04-30T11:25:17.383Z,1.50
2024-04-30T11:27:44.102Z,1.42
2024-04-30T11:30:10.830Z,1.60
2024-04-30T11:32:37.437Z,1.70
2024-04-30T11:35:04.126Z,1.50
2024-04-30T11:37:30.767Z,1.80
2024-04-30T11:39:57.355Z,1.80
2024-04-30T11:42:27.689Z,1.70
2024-04-30T11:45:03.422Z,1.90
2024-04-30T11:47:30.113Z,1.60
2024-04-30T11:49:56.741Z,1.80
2024-04-30T11:52:23.309Z,1.55
2024-04-30T11:54:49.865Z,1.70
2024-04-30T11:57:16.407Z,1.55
2024-04-30T11:59:42.970Z,1.70
2024-04-30T12:02:09.560Z,1.65
2024-04-30T12:04:36.232Z,1.70
2024-04-30T12:07:02.908Z,1.58
2024-04-30T12:09:29.462Z,1.50
2024-04-30T12:11:56.007Z,1.52
2024-04-30T12:14:22.571Z,1.63
2024-04-30T12:16:50.404Z,1.55
2024-04-30T12:19:17.136Z,1.45
2024-04-30T12:21:44.638Z,1.50
2024-04-30T12:24:11.482Z,1.45
2024-04-30T12:26:38.209Z,1.85
2024-04-30T12:29:05.090Z,1.80
2024-04-30T12:31:31.943Z,1.60
2024-04-30T12:33:58.583Z,1.73
2024-04-30T12:36:25.164Z,1.60
2024-04-30T12:38:51.784Z,1.80
2024-04-30T12:41:19.253Z,1.60
2024-04-30T12:43:45.820Z,1.92
2024-04-30T12:46:12.473Z,1.55
2024-04-30T12:48:39.164Z,1.65
2024-04-30T12:51:05.828Z,1.63
2024-04-30T12:53:32.375Z,1.80
2024-04-30T12:55:59.095Z,1.60
2024-04-30T12:58:25.746Z,1.70
2024-04-30T13:00:54.719Z,1.65
2024-04-30T13:03:21.778Z,1.42
2024-04-30T13:05:48.440Z,1.95
2024-04-30T13:08:15.151Z,1.55
2024-04-30T13:10:41.850Z,1.55
2024-04-30T13:13:09.075Z,1.52
2024-04-30T13:15:35.704Z,1.75
2024-04-30T13:18:02.390Z,2.00
2024-04-30T13:20:28.988Z,1.70
2024-04-30T13:22:55.531Z,1.65
2024-04-30T13:25:22.180Z,1.90
2024-04-30T13:27:48.760Z,2.08
2024-04-30T13:30:15.471Z,1.90
2024-04-30T13:32:44.958Z,1.60
2024-04-30T13:35:11.602Z,1.92
2024-04-30T13:37:39.591Z,1.73
2024-04-30T13:40:07.349Z,1.80
2024-04-30T13:42:34.167Z,1.70
2024-04-30T13:45:00.817Z,2.33
2024-04-30T13:47:27.535Z,1.73
2024-04-30T13:49:54.917Z,1.63
2024-04-30T13:52:21.601Z,1.70
2024-04-30T13:54:48.251Z,1.95
2024-04-30T13:57:14.868Z,2.05
2024-04-30T13:59:41.436Z,1.70
2024-04-30T14:02:10.947Z,1.90
2024-04-30T14:04:37.752Z,1.83
2024-04-30T14:07:04.529Z,1.90
2024-04-30T14:09:33.944Z,1.50
2024-04-30T14:12:02.824Z,1.80
2024-04-30T14:14:29.608Z,1.98
2024-04-30T14:16:56.279Z,1.80
2024-04-30T14:19:23.338Z,2.30
2024-04-30T14:21:49.958Z,1.85
2024-04-30T14:24:16.532Z,2.15
2024-04-30T14:26:44.573Z,1.90
2024-04-30T14:29:12.218Z,2.08
2024-04-30T14:31:38.880Z,1.75
2024-04-30T14:34:05.436Z,1.77
2024-04-30T14:36:35.966Z,1.85
2024-04-30T14:39:06.973Z,2.05
2024-04-30T14:41:34.378Z,1.83
2024-04-30T14:44:00.979Z,2.03
2024-04-30T14:46:28.071Z,2.20
2024-04-30T14:48:54.803Z,1.85
2024-04-30T14:51:21.423Z,1.80
2024-04-30T14:53:48.017Z,2.22
2024-04-30T14:56:15.283Z,2.30
2024-04-30T14:58:42.203Z,2.08
2024-04-30T15:01:08.926Z,2.15
2024-04-30T15:03:35.661Z,1.83
2024-04-30T15:06:02.297Z,2.00
2024-04-30T15:08:29.150Z,2.00
2024-04-30T15:10:55.711Z,2.50
2024-04-30T15:13:22.331Z,2.17
2024-04-30T15:15:48.964Z,2.40
2024-04-30T15:18:15.672Z,1.92
2024-04-30T15:20:42.421Z,2.22
2024-04-30T15:23:09.442Z,1.83
2024-04-30T15:25:36.643Z,2.30
2024-04-30T15:28:03.479Z,2.15
2024-04-30T15:30:30.076Z,2.25
2024-04-30T15:32:56.821Z,1.98
2024-04-30T15:35:23.620Z,2.00
2024-04-30T15:37:50.248Z,1.95
2024-04-30T15:40:16.924Z,2.38
2024-04-30T15:42:46.428Z,2.40
2024-04-30T15:45:13.038Z,2.38
2024-04-30T15:47:40.087Z,2.50
2024-04-30T15:50:06.999Z,2.30
2024-04-30T15:52:33.821Z,2.25
2024-04-30T15:55:01.709Z,2.45
2024-04-30T15:57:30.540Z,2.37
2024-04-30T15:59:57.209Z,2.40
2024-04-30T16:02:23.808Z,2.10
2024-04-30T16:04:50.404Z,1.95
2024-04-30T16:07:16.975Z,2.28
2024-04-30T16:09:44.432Z,2.17
2024-04-30T16:12:10.970Z,2.10
2024-04-30T16:14:37.580Z,2.63
2024-04-30T16:17:04.449Z,2.47
2024-04-30T16:19:31.125Z,2.20
2024-04-30T16:21:57.697Z,1.98
2024-04-30T16:24:25.317Z,2.40
2024-04-30T16:26:52.161Z,2.20
2024-04-30T16:29:18.720Z,2.38
2024-04-30T16:31:45.290Z,2.25
2024-04-30T16:34:11.883Z,2.33
2024-04-30T16:36:38.439Z,2.45
2024-04-30T16:39:05.940Z,2.40
2024-04-30T16:41:32.517Z,2.65
2024-04-30T16:43:59.192Z,2.70
2024-04-30T16:46:26.108Z,2.40
2024-04-30T16:48:54.281Z,2.40
2024-04-30T16:51:21.122Z,2.33
2024-04-30T16:53:47.695Z,2.42
2024-04-30T16:56:15.328Z,2.95
2024-04-30T16:58:42.024Z,2.10
2024-04-30T17:01:08.723Z,2.50
2024-04-30T17:03:40.134Z,2.10
2024-04-30T17:06:11.656Z,2.67
2024-04-30T17:08:38.984Z,2.30
2024-04-30T17:11:06.999Z,2.40
2024-04-30T17:13:34.336Z,2.15
2024-04-30T17:16:02.095Z,2.30
2024-04-30T17:18:28.766Z,2.80
2024-04-30T17:20:59.238Z,2.83
2024-04-30T17:23:25.833Z,2.80
2024-04-30T17:25:52.505Z,2.50
2024-04-30T17:28:20.767Z,2.72
2024-04-30T17:30:47.470Z,2.15
2024-04-30T17:33:14.130Z,2.35
2024-04-30T17:35:40.827Z,2.67
2024-04-30T17:38:09.568Z,2.20
2024-04-30T17:43:02.674Z,2.80
2024-04-30T17:45:29.319Z,2.90
2024-04-30T17:47:56.969Z,2.90
2024-04-30T17:50:23.562Z,2.33
2024-04-30T17:52:50.227Z,2.85
2024-04-30T17:55:16.877Z,2.50
2024-04-30T17:57:43.719Z,3.33
2024-04-30T18:00:10.619Z,3.13
2024-04-30T18:02:41.839Z,2.63
2024-04-30T18:05:09.536Z,3.08
2024-04-30T18:07:36.122Z,3.40
2024-04-30T18:10:03.173Z,4.57
2024-04-30T18:12:29.765Z,3.25
2024-04-30T18:14:56.331Z,3.15
2024-04-30T18:17:23.184Z,3.30
2024-04-30T18:19:49.844Z,2.90
2024-04-30T18:22:16.384Z,3.20
2024-04-30T18:24:42.978Z,2.70
2024-04-30T18:27:09.573Z,2.47
2024-04-30T18:29:36.192Z,3.03
2024-04-30T18:32:04.009Z,2.88
2024-04-30T18:34:30.815Z,2.33
2024-04-30T18:36:57.523Z,2.75
2024-04-30T18:39:24.227Z,2.42
2024-04-30T18:41:50.832Z,2.47
2024-04-30T18:44:17.384Z,2.60
2024-04-30T18:46:45.118Z,3.28
2024-04-30T18:49:11.775Z,3.13
2024-04-30T18:51:41.324Z,2.78
2024-04-30T18:54:08.903Z,3.50
2024-04-30T18:56:39.022Z,3.05
2024-04-30T18:59:05.557Z,3.13
2024-04-30T19:01:36.465Z,3.20
2024-04-30T19:04:03.779Z,2.55
2024-04-30T19:06:30.725Z,3.05
2024-04-30T19:08:57.891Z,2.88
2024-04-30T19:11:24.537Z,2.65
2024-04-30T19:13:51.154Z,2.78
2024-04-30T19:16:17.709Z,2.63
2024-04-30T19:18:44.413Z,2.80
2024-04-30T19:21:11.902Z,2.88
2024-04-30T19:23:38.688Z,2.97
2024-04-30T19:26:05.382Z,2.67
2024-04-30T19:28:32.202Z,2.75
2024-04-30T19:30:59.024Z,2.63
2024-04-30T19:33:25.899Z,3.25
2024-04-30T19:35:52.850Z,2.65
2024-04-30T19:38:19.411Z,2.38
2024-04-30T19:40:46.231Z,2.67
2024-04-30T19:43:16.245Z,2.90
2024-04-30T19:45:43.675Z,2.90
2024-04-30T19:48:15.277Z,3.42
2024-04-30T19:50:44.506Z,2.55
2024-04-30T19:53:11.131Z,2.90
2024-04-30T19:55:37.705Z,2.90
2024-04-30T19:58:04.365Z,2.20
2024-04-30T20:00:31.118Z,2.78
2024-04-30T20:02:58.906Z,2.53
2024-04-30T20:05:25.514Z,3.28
2024-04-30T20:07:52.719Z,2.72
2024-04-30T20:10:19.287Z,2.97
2024-04-30T20:12:46.091Z,3.63
2024-04-30T20:15:12.893Z,3.05
2024-04-30T20:17:39.500Z,2.38
2024-04-30T20:20:06.487Z,3.17
2024-04-30T20:22:33.068Z,2.88
2024-04-30T20:24:59.771Z,3.03
2024-04-30T20:27:26.425Z,3.17
2024-04-30T20:29:53.052Z,3.70
2024-04-30T20:32:19.620Z,3.10
2024-04-30T20:34:46.161Z,2.50
2024-04-30T20:37:12.804Z,2.58
2024-04-30T20:39:39.757Z,3.20
2024-04-30T20:42:06.671Z,3.13
2024-04-30T20:44:33.256Z,2.30
2024-04-30T20:46:59.820Z,2.53
2024-04-30T20:49:26.425Z,2.85
2024-04-30T20:51:53.091Z,2.50
2024-04-30T20:54:20.226Z,3.00
2024-04-30T20:56:46.803Z,2.75
2024-04-30T20:59:13.547Z,2.50
2024-04-30T21:01:40.332Z,3.25
2024-04-30T21:04:07.270Z,3.03
2024-04-30T21:06:33.981Z,3.00
2024-04-30T21:09:00.541Z,2.85
2024-04-30T21:11:27.315Z,3.20
2024-04-30T21:13:53.998Z,2.83
2024-04-30T21:16:20.774Z,3.38
2024-04-30T21:18:47.508Z,3.20
2024-04-30T21:21:14.243Z,2.85
2024-04-30T21:23:43.110Z,3.35
2024-04-30T21:26:10.219Z,3.28
2024-04-30T21:28:37.770Z,3.03
2024-04-30T21:31:04.596Z,2.53
2024-04-30T21:33:31.412Z,2.95
2024-04-30T21:35:58.366Z,2.72
2024-04-30T21:38:24.961Z,3.03
2024-04-30T21:40:51.664Z,2.92
2024-04-30T21:43:18.413Z,2.80
2024-04-30T21:45:45.235Z,3.30
2024-04-30T21:48:12.570Z,3.28
2024-04-30T21:50:39.166Z,2.88
2024-04-30T21:53:05.742Z,3.92
2024-04-30T21:55:32.293Z,2.60
2024-04-30T21:57:58.923Z,2.78
2024-04-30T22:00:25.660Z,3.03
2024-04-30T22:02:57.472Z,2.75
2024-04-30T22:05:26.948Z,2.83
2024-04-30T22:07:53.535Z,2.60
2024-04-30T22:10:20.175Z,2.67
2024-04-30T22:12:46.891Z,2.45
2024-04-30T22:15:16.894Z,2.67
2024-04-30T22:17:43.539Z,2.88
2024-04-30T22:20:10.342Z,3.33
2024-04-30T22:22:36.913Z,2.40
2024-04-30T22:25:04.638Z,2.65
2024-04-30T22:27:31.252Z,2.78
2024-04-30T22:30:05.798Z,3.22
2024-04-30T22:32:41.299Z,2.67
2024-04-30T22:35:08.038Z,2.70
2024-04-30T22:37:34.596Z,3.00
2024-04-30T22:40:01.376Z,3.00
2024-04-30T22:42:28.178Z,2.90
2024-04-30T22:44:54.745Z,3.00
2024-04-30T22:47:21.388Z,2.85
2024-04-30T22:49:48.002Z,2.70
2024-04-30T22:52:15.095Z,2.80
2024-04-30T22:54:43.316Z,2.70
2024-04-30T22:57:10.016Z,2.60
2024-04-30T22:59:36.656Z,2.40
2024-04-30T23:02:03.234Z,2.45
2024-04-30T23:04:29.900Z,2.88
2024-04-30T23:06:56.657Z,2.58
2024-04-30T23:09:23.382Z,2.88
2024-04-30T23:11:50.337Z,2.88
2024-04-30T23:14:16.918Z,2.92
2024-04-30T23:16:43.564Z,2.80
2024-04-30T23:19:10.517Z,2.60
2024-04-30T23:21:38.569Z,3.22
2024-04-30T23:24:05.927Z,2.80
2024-04-30T23:26:32.518Z,2.83
2024-04-30T23:28:59.122Z,2.42
2024-04-30T23:31:25.785Z,2.35
2024-04-30T23:33:52.510Z,3.20
2024-04-30T23:36:20.101Z,2.83
2024-04-30T23:38:46.768Z,3.05
2024-04-30T23:41:13.478Z,3.08
2024-04-30T23:43:40.172Z,2.63
2024-04-30T23:46:07.514Z,2.83
2024-04-30T23:48:34.093Z,2.80
2024-04-30T23:51:00.722Z,2.78
2024-04-30T23:53:27.316Z,2.53
2024-04-30T23:55:53.859Z,3.00
2024-04-30T23:58:20.410Z,2.75
